Time;durP1;ratioP1;P1;durP2;ratioP2;P2;SDS_P1;SDS_P2;PMS_P1;PMS_P2;Temp;Humidity;BMP_temperature;BMP_pressure;BME280_temperature;BME280_humidity;BME280_pressure;Samples;Min_cycle;Max_cycle;Signal;HPM_P1;HPM_P2
2022/05/19 00:00:36;;;;;;;5.05;2.05;;;20.40;68.10;;;;;;5080068;28;20513;-88
2022/05/19 00:03:03;;;;;;;4.57;2.00;;;20.40;68.20;;;;;;5074953;28;20061;-88
2022/05/19 00:05:31;;;;;;;4.10;2.05;;;20.40;68.40;;;;;;5092097;28;20632;-89
2022/05/19 00:07:58;;;;;;;4.82;2.40;;;20.40;68.50;;;;;;5084145;28;20049;-89
2022/05/19 00:10:25;;;;;;;5.93;2.60;;;20.40;68.70;;;;;;5066319;28;20049;-89
2022/05/19 00:12:52;;;;;;;6.32;2.30;;;20.40;68.80;;;;;;5083947;28;20109;-90
2022/05/19 00:15:19;;;;;;;9.35;2.50;;;20.40;69.10;;;;;;5063727;28;20040;-89
2022/05/19 00:17:45;;;;;;;5.45;2.53;;;20.40;69.30;;;;;;5079173;28;20056;-89
2022/05/19 00:20:15;;;;;;;13.18;2.78;;;20.40;69.40;;;;;;5080223;28;20051;-89
2022/05/19 00:22:41;;;;;;;6.25;2.88;;;20.40;69.60;;;;;;5083764;28;20102;-92
2022/05/19 00:25:09;;;;;;;12.50;3.35;;;20.40;69.80;;;;;;5071817;28;20116;-93
2022/05/19 00:27:35;;;;;;;19.85;4.40;;;20.40;70.20;;;;;;5096585;28;20056;-90
2022/05/19 00:30:04;;;;;;;16.80;3.85;;;20.40;70.50;;;;;;5062197;28;20048;-93
2022/05/19 00:32:30;;;;;;;12.65;4.15;;;20.40;70.60;;;;;;5096786;28;20064;-91
2022/05/19 00:34:57;;;;;;;14.27;3.85;;;20.40;70.50;;;;;;5078591;28;20101;-94
2022/05/19 00:37:24;;;;;;;17.50;4.07;;;20.30;70.40;;;;;;5080454;28;20525;-94
2022/05/19 00:39:51;;;;;;;23.73;4.45;;;20.20;70.40;;;;;;5079229;28;20406;-95
2022/05/19 00:45:06;;;;;;;19.42;3.70;;;20.10;70.70;;;;;;5078045;28;20430;-93
2022/05/19 00:47:42;;;;;;;26.15;3.88;;;20.00;70.90;;;;;;5058809;28;20060;-95
2022/05/19 00:50:25;;;;;;;18.52;3.92;;;19.90;71.00;;;;;;5059057;28;20048;-92
2022/05/19 00:52:58;;;;;;;8.75;3.83;;;19.90;71.20;;;;;;5058983;28;20186;-93
2022/05/19 01:38:33;;;;;;;11.50;3.72;;;19.50;74.20;;;;;;5081720;22;20060;-88
2022/05/19 01:41:29;;;;;;;7.30;3.25;;;19.50;74.30;;;;;;5058853;28;20048;-89
2022/05/19 01:44:22;;;;;;;13.57;3.42;;;19.50;74.40;;;;;;5061841;28;20056;-88
2022/05/19 01:46:59;;;;;;;11.07;3.33;;;19.50;74.40;;;;;;5044452;28;20103;-89
2022/05/19 01:49:34;;;;;;;8.32;3.30;;;19.50;74.50;;;;;;5061977;28;20108;-88
2022/05/19 01:52:26;;;;;;;6.57;2.63;;;19.50;74.50;;;;;;5061850;28;20040;-88
2022/05/19 01:55:38;;;;;;;11.63;3.38;;;19.60;74.60;;;;;;5043494;28;20048;-88
2022/05/19 01:58:16;;;;;;;9.95;2.90;;;19.50;74.60;;;;;;4975446;28;20488;-88
2022/05/19 02:00:46;;;;;;;5.43;2.53;;;19.50;74.70;;;;;;4988431;28;20479;-88
2022/05/19 02:03:24;;;;;;;6.93;3.25;;;19.50;74.70;;;;;;4990831;28;20141;-88
2022/05/19 02:06:25;;;;;;;10.98;3.17;;;19.50;74.80;;;;;;4988298;28;20053;-88
2022/05/19 02:08:58;;;;;;;8.38;3.17;;;19.50;74.90;;;;;;4953112;29;20051;-88
2022/05/19 02:11:30;;;;;;;4.65;2.60;;;19.40;74.90;;;;;;4953919;28;20457;-88
2022/05/19 02:14:03;;;;;;;8.45;3.05;;;19.40;75.00;;;;;;4932226;29;20099;-89
2022/05/19 02:16:30;;;;;;;9.07;3.10;;;19.50;75.00;;;;;;4947499;28;20055;-88
2022/05/19 02:18:58;;;;;;;7.95;3.15;;;19.40;75.10;;;;;;4938165;29;20599;-88
2022/05/19 02:21:25;;;;;;;7.80;2.72;;;19.40;75.10;;;;;;4938080;28;20046;-88
2022/05/19 02:23:57;;;;;;;9.27;3.00;;;19.40;75.20;;;;;;4953347;29;20051;-88
2022/05/19 02:26:24;;;;;;;7.28;3.30;;;19.40;75.20;;;;;;4955184;28;20509;-88
2022/05/19 02:28:56;;;;;;;6.60;3.03;;;19.40;75.30;;;;;;4955766;28;20059;-88
2022/05/19 02:31:23;;;;;;;7.55;3.03;;;19.40;75.30;;;;;;4953818;28;20461;-87
2022/05/19 02:33:50;;;;;;;7.63;3.00;;;19.40;75.30;;;;;;4939937;28;20058;-87
2022/05/19 02:36:17;;;;;;;8.80;3.15;;;19.40;75.40;;;;;;4990837;28;20463;-88
2022/05/19 02:38:44;;;;;;;8.70;3.35;;;19.40;75.40;;;;;;4991622;28;20093;-88
2022/05/19 02:41:11;;;;;;;8.50;3.10;;;19.40;75.50;;;;;;4992420;28;20053;-88
2022/05/19 02:43:38;;;;;;;6.85;2.78;;;19.40;75.50;;;;;;4992432;28;20058;-88
2022/05/19 02:46:05;;;;;;;8.23;3.20;;;19.40;75.50;;;;;;5042657;28;20047;-87
2022/05/19 02:48:33;;;;;;;6.57;3.50;;;19.40;75.60;;;;;;5057223;28;20053;-88
2022/05/19 02:51:00;;;;;;;5.75;3.10;;;19.40;75.60;;;;;;5056313;28;20045;-88
2022/05/19 02:53:27;;;;;;;9.18;3.60;;;19.40;75.70;;;;;;5042876;28;20057;-87
2022/05/19 02:55:54;;;;;;;6.45;3.33;;;19.30;75.70;;;;;;5060903;28;20060;-87
2022/05/19 02:58:21;;;;;;;7.00;3.50;;;19.30;75.70;;;;;;5063793;28;20422;-87
2022/05/19 03:00:50;;;;;;;6.85;3.00;;;19.30;75.70;;;;;;5072312;28;20056;-87
2022/05/19 03:03:17;;;;;;;7.45;3.70;;;19.30;75.80;;;;;;5056316;28;20056;-87
2022/05/19 03:05:45;;;;;;;5.93;3.03;;;19.30;75.80;;;;;;5057799;28;20064;-87
2022/05/19 03:08:12;;;;;;;8.20;3.08;;;19.30;75.90;;;;;;5060647;28;20568;-87
2022/05/19 03:10:42;;;;;;;8.27;3.40;;;19.30;75.90;;;;;;5060741;28;20052;-88
2022/05/19 03:13:19;;;;;;;7.90;3.47;;;19.30;75.90;;;;;;5060665;28;20040;-87
2022/05/19 03:15:47;;;;;;;7.05;3.42;;;19.30;76.00;;;;;;5058925;28;20049;-87
2022/05/19 03:18:15;;;;;;;5.82;2.85;;;19.20;76.00;;;;;;5055956;28;20487;-87
2022/05/19 03:20:42;;;;;;;7.47;3.67;;;19.20;76.00;;;;;;5058159;28;20049;-86
2022/05/19 03:23:09;;;;;;;5.35;3.15;;;19.20;76.10;;;;;;5046607;28;20047;-88
2022/05/19 03:25:36;;;;;;;7.03;3.47;;;19.20;76.10;;;;;;5054009;28;20105;-88
2022/05/19 03:28:03;;;;;;;4.85;3.00;;;19.20;76.20;;;;;;5071167;28;20048;-87
2022/05/19 03:30:31;;;;;;;5.65;3.20;;;19.20;76.20;;;;;;5056422;28;20044;-87
2022/05/19 03:32:58;;;;;;;8.15;3.70;;;19.20;76.20;;;;;;5056191;28;20056;-87
2022/05/19 03:35:25;;;;;;;6.43;3.85;;;19.20;76.30;;;;;;5071527;28;20087;-87
2022/05/19 03:37:57;;;;;;;6.40;3.88;;;19.10;76.30;;;;;;5045875;28;20060;-87
2022/05/19 03:40:25;;;;;;;5.70;3.60;;;19.10;76.30;;;;;;5060434;28;20037;-87
2022/05/19 03:42:51;;;;;;;5.65;3.92;;;19.10;76.40;;;;;;5040144;28;20052;-87
2022/05/19 03:45:18;;;;;;;7.05;3.38;;;19.10;76.40;;;;;;5038029;28;20048;-87
2022/05/19 03:47:45;;;;;;;9.00;3.45;;;19.10;76.40;;;;;;5039869;28;20061;-87
2022/05/19 03:50:12;;;;;;;6.38;3.55;;;19.10;76.50;;;;;;5046422;28;20053;-87
2022/05/19 03:52:41;;;;;;;7.40;3.63;;;19.10;76.50;;;;;;5066105;28;20080;-87
2022/05/19 03:55:09;;;;;;;7.97;4.07;;;19.10;76.60;;;;;;5060359;28;20098;-86
2022/05/19 03:57:36;;;;;;;7.20;3.60;;;19.00;76.60;;;;;;5039421;28;20052;-87
2022/05/19 04:00:06;;;;;;;6.35;3.30;;;19.10;76.70;;;;;;5055566;28;20094;-87
2022/05/19 04:02:33;;;;;;;10.05;4.03;;;19.00;76.70;;;;;;5071526;28;20048;-87
2022/05/19 04:05:03;;;;;;;7.28;3.78;;;19.00;76.70;;;;;;5047686;28;20128;-87
2022/05/19 04:07:30;;;;;;;6.63;4.00;;;19.00;76.80;;;;;;5071414;28;20104;-87
2022/05/19 04:09:57;;;;;;;6.63;3.83;;;19.00;76.80;;;;;;5071345;28;20044;-87
2022/05/19 04:12:24;;;;;;;7.85;3.55;;;19.00;76.80;;;;;;5055303;28;20116;-86
2022/05/19 04:14:51;;;;;;;5.93;3.60;;;18.90;76.80;;;;;;5056808;28;20091;-87
2022/05/19 04:17:18;;;;;;;8.80;4.00;;;18.90;76.80;;;;;;5052684;28;20052;-87
2022/05/19 04:19:45;;;;;;;7.95;3.72;;;18.90;76.90;;;;;;5064888;28;20572;-87
2022/05/19 04:22:12;;;;;;;6.03;3.60;;;18.90;76.90;;;;;;5039231;28;20052;-87
2022/05/19 04:24:39;;;;;;;9.65;3.97;;;18.90;77.00;;;;;;5071249;28;20574;-87
2022/05/19 04:27:06;;;;;;;6.57;3.97;;;18.90;77.00;;;;;;5037535;28;20049;-86
2022/05/19 04:29:33;;;;;;;6.40;3.40;;;18.90;77.00;;;;;;5071766;28;20049;-87
2022/05/19 04:32:00;;;;;;;5.93;3.60;;;18.90;77.00;;;;;;5062470;28;20106;-87
2022/05/19 04:34:27;;;;;;;9.02;3.60;;;18.90;77.00;;;;;;5059799;28;20063;-87
2022/05/19 04:36:54;;;;;;;6.93;3.30;;;18.90;77.00;;;;;;5059057;28;20052;-87
2022/05/19 04:39:21;;;;;;;7.68;3.65;;;18.90;77.10;;;;;;5054787;28;20044;-87
2022/05/19 04:41:48;;;;;;;6.82;3.85;;;18.90;77.10;;;;;;5056651;28;20049;-87
2022/05/19 04:44:18;;;;;;;5.88;3.85;;;18.90;77.10;;;;;;5059686;28;20060;-87
2022/05/19 04:46:45;;;;;;;5.57;3.60;;;18.90;77.20;;;;;;5059157;28;20529;-87
2022/05/19 04:49:12;;;;;;;7.75;3.88;;;18.90;77.20;;;;;;5059725;28;20044;-86
2022/05/19 04:51:39;;;;;;;6.60;3.95;;;18.90;77.20;;;;;;5041432;28;20040;-87
2022/05/19 04:54:06;;;;;;;7.45;4.00;;;18.90;77.30;;;;;;5058682;28;20053;-87
2022/05/19 04:56:33;;;;;;;4.88;3.22;;;18.90;77.30;;;;;;5074995;28;20472;-87
2022/05/19 04:59:00;;;;;;;7.60;3.63;;;18.90;77.40;;;;;;5066078;28;20580;-87
2022/05/19 05:01:27;;;;;;;6.20;3.42;;;18.90;77.40;;;;;;5062848;28;20049;-86
2022/05/19 05:03:59;;;;;;;6.47;3.90;;;18.90;77.40;;;;;;5040440;28;20076;-87
2022/05/19 05:06:26;;;;;;;7.80;3.60;;;18.90;77.50;;;;;;5058735;28;20483;-87
2022/05/19 05:08:53;;;;;;;6.40;3.85;;;18.90;77.50;;;;;;5070496;28;20122;-87
2022/05/19 05:11:20;;;;;;;5.97;3.78;;;18.90;77.50;;;;;;5063255;28;20048;-87
2022/05/19 05:13:46;;;;;;;6.97;4.07;;;18.90;77.60;;;;;;5066691;28;20045;-87
2022/05/19 05:16:13;;;;;;;5.82;3.38;;;18.90;77.60;;;;;;5071763;28;20044;-87
2022/05/19 05:18:41;;;;;;;5.85;3.50;;;18.90;77.70;;;;;;5059800;28;20128;-86
2022/05/19 05:21:11;;;;;;;7.50;3.92;;;18.90;77.70;;;;;;5057588;28;20182;-87
2022/05/19 05:23:38;;;;;;;7.63;3.70;;;18.90;77.70;;;;;;5058963;28;20045;-87
2022/05/19 05:26:06;;;;;;;6.20;3.67;;;18.90;77.80;;;;;;5044794;28;20045;-87
2022/05/19 05:28:34;;;;;;;6.93;3.92;;;19.00;77.80;;;;;;5062329;28;20049;-87
2022/05/19 05:31:01;;;;;;;7.53;3.67;;;19.00;77.90;;;;;;5044101;28;20048;-85
2022/05/19 05:33:29;;;;;;;6.25;3.53;;;19.00;77.90;;;;;;5057804;28;20052;-85
2022/05/19 05:35:57;;;;;;;6.00;3.85;;;19.00;77.90;;;;;;5056341;28;20048;-85
2022/05/19 05:38:24;;;;;;;10.55;4.10;;;18.90;77.90;;;;;;5073200;28;20453;-85
2022/05/19 05:40:51;;;;;;;7.63;4.60;;;19.00;78.00;;;;;;5066332;28;20107;-85
2022/05/19 05:43:19;;;;;;;5.25;3.35;;;19.00;78.00;;;;;;5061893;28;20422;-84
2022/05/19 05:45:48;;;;;;;6.15;3.50;;;19.10;78.00;;;;;;5060055;28;20525;-85
2022/05/19 05:48:16;;;;;;;7.25;3.85;;;19.10;78.10;;;;;;5057232;28;20053;-85
2022/05/19 05:50:43;;;;;;;6.03;4.18;;;19.10;78.10;;;;;;5059440;28;20045;-85
2022/05/19 05:53:10;;;;;;;6.18;3.83;;;19.10;78.10;;;;;;5061909;28;20045;-85
2022/05/19 05:55:39;;;;;;;7.38;3.90;;;19.10;78.10;;;;;;5066926;28;20460;-84
2022/05/19 05:58:08;;;;;;;5.30;3.70;;;19.10;78.10;;;;;;5072451;28;20048;-84
2022/05/19 06:00:35;;;;;;;5.50;3.70;;;19.10;78.20;;;;;;5068211;28;20048;-85
2022/05/19 06:03:02;;;;;;;7.80;3.90;;;19.10;78.20;;;;;;5056588;28;20434;-84
2022/05/19 06:05:29;;;;;;;6.40;4.07;;;19.10;78.20;;;;;;5060505;28;20056;-84
2022/05/19 06:07:56;;;;;;;9.82;3.70;;;19.20;78.20;;;;;;5061583;28;20048;-85
2022/05/19 06:10:23;;;;;;;7.63;3.60;;;19.20;78.20;;;;;;5061420;28;20048;-85
2022/05/19 06:12:50;;;;;;;6.45;3.83;;;19.20;78.20;;;;;;5062283;28;20044;-85
2022/05/19 06:15:17;;;;;;;8.68;3.20;;;19.20;78.20;;;;;;5056386;28;20049;-85
2022/05/19 06:17:44;;;;;;;8.90;4.20;;;19.20;78.30;;;;;;5059031;28;20045;-85
2022/05/19 06:20:14;;;;;;;6.28;4.47;;;19.30;78.30;;;;;;5060810;28;20052;-85
2022/05/19 06:22:42;;;;;;;5.47;3.70;;;19.30;78.30;;;;;;5061065;28;20049;-84
2022/05/19 06:25:12;;;;;;;9.68;4.63;;;19.30;78.40;;;;;;5061372;28;20148;-85
2022/05/19 06:27:39;;;;;;;5.57;3.38;;;19.40;78.40;;;;;;5058171;28;20525;-85
2022/05/19 06:30:07;;;;;;;7.40;4.15;;;19.30;78.50;;;;;;5056343;28;20045;-85
2022/05/19 06:32:38;;;;;;;7.20;4.30;;;19.40;78.40;;;;;;5059976;28;20131;-85
2022/05/19 06:35:06;;;;;;;10.20;4.20;;;19.40;78.50;;;;;;5061116;28;20457;-85
2022/05/19 06:37:33;;;;;;;5.15;3.38;;;19.40;78.50;;;;;;5060671;28;20087;-85
2022/05/19 06:40:00;;;;;;;7.00;4.35;;;19.50;78.50;;;;;;5060867;28;20048;-88
2022/05/19 06:42:27;;;;;;;6.72;4.20;;;19.50;78.60;;;;;;5056544;28;20045;-87
2022/05/19 06:44:56;;;;;;;6.63;4.05;;;19.50;78.60;;;;;;5066005;28;20045;-87
2022/05/19 06:47:23;;;;;;;7.22;4.32;;;19.60;78.70;;;;;;5038877;28;20112;-87
2022/05/19 06:49:52;;;;;;;9.82;4.15;;;19.60;78.70;;;;;;5060068;28;20533;-87
2022/05/19 06:52:24;;;;;;;7.80;4.50;;;19.60;78.70;;;;;;5053255;28;20044;-85
2022/05/19 06:54:55;;;;;;;7.75;3.95;;;19.70;78.70;;;;;;5068431;28;20130;-86
2022/05/19 06:57:24;;;;;;;8.30;4.20;;;19.70;78.70;;;;;;5068964;28;20044;-86
2022/05/19 06:59:52;;;;;;;10.80;5.40;;;19.70;78.70;;;;;;5054531;28;20044;-88
2022/05/19 07:02:21;;;;;;;9.15;5.00;;;19.80;78.60;;;;;;5067916;28;20052;-88
2022/05/19 07:04:48;;;;;;;8.07;4.60;;;19.80;78.80;;;;;;5068068;28;20048;-87
2022/05/19 07:07:15;;;;;;;9.30;4.68;;;19.90;78.80;;;;;;5068039;28;20040;-87
2022/05/19 07:09:42;;;;;;;6.40;4.13;;;19.90;78.80;;;;;;5053504;28;20041;-87
2022/05/19 07:12:10;;;;;;;7.68;4.22;;;19.90;78.90;;;;;;5070106;28;20057;-87
2022/05/19 07:14:38;;;;;;;6.35;4.60;;;19.90;78.90;;;;;;5052555;28;20048;-87
2022/05/19 07:17:05;;;;;;;5.95;3.35;;;19.90;79.00;;;;;;5053288;28;20048;-88
2022/05/19 07:22:22;;;;;;;6.45;4.43;;;20.00;78.90;;;;;;5068235;28;20105;-88
2022/05/19 07:24:50;;;;;;;8.48;4.88;;;20.00;78.90;;;;;;5068227;28;20139;-87
2022/05/19 07:27:18;;;;;;;8.52;4.25;;;20.10;79.00;;;;;;5068997;28;20048;-87
2022/05/19 07:29:45;;;;;;;7.20;3.78;;;20.10;79.10;;;;;;5070966;28;20045;-87
2022/05/19 07:32:22;;;;;;;5.03;3.45;;;20.10;79.20;;;;;;5068119;28;20048;-87
2022/05/19 07:34:48;;;;;;;7.07;3.85;;;20.20;79.10;;;;;;5067585;28;20171;-87
2022/05/19 07:37:16;;;;;;;5.53;3.28;;;20.30;79.10;;;;;;5069245;28;20440;-87
2022/05/19 07:39:44;;;;;;;7.70;4.05;;;20.30;79.00;;;;;;5050036;28;20095;-87
2022/05/19 07:42:11;;;;;;;5.93;3.55;;;20.40;78.90;;;;;;5052069;28;20688;-88
2022/05/19 07:44:38;;;;;;;9.70;5.55;;;20.40;78.90;;;;;;5069798;28;20109;-87
2022/05/19 07:47:05;;;;;;;11.65;6.32;;;20.40;78.80;;;;;;5067576;28;20088;-88
2022/05/19 07:49:32;;;;;;;7.15;3.97;;;20.50;78.90;;;;;;5067436;28;20434;-88
2022/05/19 07:52:00;;;;;;;7.47;3.40;;;20.60;79.00;;;;;;5067807;28;20098;-88
2022/05/19 07:54:28;;;;;;;6.88;3.92;;;20.70;79.00;;;;;;5052138;28;20052;-88
2022/05/19 07:56:55;;;;;;;8.70;4.05;;;20.70;78.90;;;;;;5049780;28;20060;-87
2022/05/19 07:59:23;;;;;;;9.48;3.80;;;20.80;78.90;;;;;;5067515;28;20051;-88
2022/05/19 08:01:51;;;;;;;8.10;4.07;;;20.80;78.80;;;;;;5052823;28;20048;-87
2022/05/19 08:04:20;;;;;;;6.68;3.85;;;20.90;78.70;;;;;;5069293;28;20051;-88
2022/05/19 08:06:48;;;;;;;7.72;3.80;;;20.90;78.70;;;;;;5067833;28;20123;-89
2022/05/19 08:12:02;;;;;;;6.50;3.80;;;21.10;78.60;;;;;;5067239;28;20052;-89
2022/05/19 08:17:32;;;;;;;7.27;4.13;;;21.20;78.60;;;;;;5070713;28;20539;-89
2022/05/19 08:20:00;;;;;;;8.57;3.72;;;21.30;78.60;;;;;;5067312;28;20349;-89
2022/05/19 08:22:27;;;;;;;6.78;4.00;;;21.40;78.60;;;;;;5067417;28;20048;-89
2022/05/19 08:24:54;;;;;;;6.53;4.10;;;21.40;78.50;;;;;;5068464;28;20517;-89
2022/05/19 08:27:21;;;;;;;9.48;4.22;;;21.50;78.50;;;;;;5073552;28;20511;-89
2022/05/19 08:29:48;;;;;;;6.95;4.45;;;21.50;78.60;;;;;;5075512;28;20052;-89
2022/05/19 08:32:16;;;;;;;6.50;3.72;;;21.60;78.50;;;;;;5071141;28;20461;-89
2022/05/19 08:34:43;;;;;;;13.00;5.22;;;21.70;78.40;;;;;;5071016;28;20099;-90
2022/05/19 08:37:10;;;;;;;6.60;3.72;;;21.80;78.40;;;;;;5070920;28;20036;-88
2022/05/19 08:39:36;;;;;;;10.70;4.45;;;21.80;78.20;;;;;;5055708;28;20052;-89
2022/05/19 08:42:07;;;;;;;9.88;4.78;;;21.80;78.10;;;;;;5074218;28;20040;-88
2022/05/19 08:44:40;;;;;;;14.05;5.10;;;21.90;77.90;;;;;;5074697;28;20052;-88
2022/05/19 08:47:11;;;;;;;16.77;4.82;;;21.90;77.60;;;;;;5070623;28;20106;-88
2022/05/19 08:50:01;;;;;;;27.23;5.20;;;21.90;77.00;;;;;;5071007;28;20098;-88
2022/05/19 08:52:38;;;;;;;14.98;4.97;;;21.80;76.20;;;;;;5056024;28;20052;-89
2022/05/19 08:55:08;;;;;;;20.33;5.18;;;21.70;75.70;;;;;;5056172;28;20049;-90
2022/05/19 08:58:09;;;;;;;15.45;4.68;;;21.70;75.40;;;;;;5055701;28;20090;-90
2022/05/19 09:00:51;;;;;;;12.85;4.63;;;21.50;75.10;;;;;;5056185;28;20063;-90
2022/05/19 09:03:34;;;;;;;13.07;4.10;;;21.40;75.00;;;;;;5072260;28;20048;-90
2022/05/19 09:06:34;;;;;;;13.75;4.22;;;21.30;75.00;;;;;;5070545;28;20091;-91
2022/05/19 09:09:16;;;;;;;15.75;4.20;;;21.10;75.00;;;;;;5052739;28;20044;-90
2022/05/19 09:11:55;;;;;;;14.75;4.57;;;21.00;75.20;;;;;;5073355;28;20102;-90
2022/05/19 09:14:30;;;;;;;12.57;4.30;;;20.90;75.40;;;;;;5072274;28;20049;-90
2022/05/19 09:17:08;;;;;;;13.00;4.72;;;20.70;75.60;;;;;;5070776;28;20059;-90
2022/05/19 09:19:41;;;;;;;13.68;4.82;;;20.60;75.70;;;;;;5070353;28;20059;-89
2022/05/19 09:22:14;;;;;;;13.75;4.90;;;20.50;76.00;;;;;;5055267;28;20105;-90
2022/05/19 09:24:44;;;;;;;14.80;4.57;;;20.40;76.20;;;;;;5070509;28;20045;-90
2022/05/19 09:27:13;;;;;;;18.08;5.03;;;20.30;76.30;;;;;;5054924;28;20055;-90
2022/05/19 09:29:49;;;;;;;13.35;4.47;;;20.10;76.30;;;;;;5054761;28;20049;-89
2022/05/19 09:32:29;;;;;;;14.63;4.20;;;20.00;76.40;;;;;;5070369;28;20052;-90
2022/05/19 09:35:11;;;;;;;11.55;4.00;;;20.00;76.60;;;;;;5070373;28;20052;-90
2022/05/19 09:37:48;;;;;;;10.60;4.18;;;19.90;76.80;;;;;;5053352;28;20403;-90
2022/05/19 09:40:28;;;;;;;14.38;3.85;;;19.80;77.00;;;;;;5055546;28;20055;-90
2022/05/19 09:43:18;;;;;;;12.93;3.53;;;19.70;77.30;;;;;;5057905;28;20502;-89
2022/05/19 09:45:51;;;;;;;9.40;3.30;;;19.60;77.50;;;;;;5071694;28;20057;-90
2022/05/19 09:48:33;;;;;;;9.15;3.88;;;19.60;77.70;;;;;;5071677;28;20442;-90
2022/05/19 09:51:08;;;;;;;7.90;3.25;;;19.50;77.80;;;;;;5069732;28;20361;-91
2022/05/19 09:53:51;;;;;;;9.20;3.38;;;19.50;77.90;;;;;;5056027;28;20057;-90
2022/05/19 09:56:21;;;;;;;8.33;3.40;;;19.40;78.10;;;;;;5050681;28;20048;-90
2022/05/19 09:58:51;;;;;;;10.73;3.85;;;19.40;78.10;;;;;;5071480;28;20305;-90
2022/05/19 10:01:29;;;;;;;11.73;3.92;;;19.40;78.20;;;;;;5054825;28;20121;-90
2022/05/19 10:04:01;;;;;;;8.90;3.75;;;19.40;78.30;;;;;;5069855;28;20040;-90
2022/05/19 10:07:05;;;;;;;14.35;4.57;;;19.30;78.40;;;;;;5054639;28;20406;-89
2022/05/19 10:09:39;;;;;;;10.60;4.00;;;19.30;78.50;;;;;;5054026;28;20048;-88
2022/05/19 10:12:20;;;;;;;11.07;4.25;;;19.30;78.60;;;;;;5054093;28;20498;-88
2022/05/19 10:14:56;;;;;;;11.05;4.30;;;19.20;78.60;;;;;;5051484;28;20044;-88
2022/05/19 10:17:33;;;;;;;11.00;3.92;;;19.20;78.70;;;;;;5070965;28;20086;-89
2022/05/19 10:20:06;;;;;;;11.00;3.72;;;19.20;78.80;;;;;;5070485;28;20059;-89
2022/05/19 10:22:32;;;;;;;11.68;3.72;;;19.10;78.90;;;;;;5069427;28;20079;-89
2022/05/19 10:25:24;;;;;;;9.07;4.03;;;19.10;79.00;;;;;;5069391;28;20045;-89
2022/05/19 10:31:32;;;;;;;10.52;4.00;;;19.20;79.40;;;;;;5058099;28;20048;-89
2022/05/19 10:34:15;;;;;;;13.52;3.83;;;19.20;79.60;;;;;;5039942;28;20056;-90
2022/05/19 10:37:06;;;;;;;7.63;3.35;;;19.30;79.80;;;;;;5055077;28;20541;-89
2022/05/19 10:39:55;;;;;;;14.07;4.47;;;19.30;79.80;;;;;;5037681;28;20492;-89
2022/05/19 10:42:49;;;;;;;10.38;3.33;;;19.40;80.00;;;;;;5070088;28;20474;-88
2022/05/19 10:45:23;;;;;;;7.40;3.10;;;19.50;80.10;;;;;;5051378;28;20048;-89
2022/05/19 10:48:04;;;;;;;7.57;3.45;;;19.50;80.10;;;;;;5054259;28;20110;-88
2022/05/19 10:50:35;;;;;;;9.30;3.40;;;19.60;80.10;;;;;;5071192;28;20055;-88
2022/05/19 10:53:33;;;;;;;7.25;3.30;;;19.70;80.00;;;;;;5053899;28;20117;-88
2022/05/19 10:56:26;;;;;;;6.50;3.22;;;19.80;79.90;;;;;;5068405;28;20564;-88
2022/05/19 10:59:14;;;;;;;5.93;2.80;;;19.90;79.70;;;;;;5060381;28;20579;-89
2022/05/19 11:01:50;;;;;;;7.97;3.15;;;19.90;79.60;;;;;;5062364;28;20044;-89
2022/05/19 11:04:55;;;;;;;8.18;2.72;;;19.90;79.40;;;;;;5053027;28;20047;-89
2022/05/19 11:07:30;;;;;;;;;;;19.90;79.30;;;;;;5068743;28;20485;-89
2022/05/19 11:10:13;;;;;;;8.13;3.08;;;20.00;79.10;;;;;;5052080;28;19920;-88
2022/05/19 11:13:17;;;;;;;5.38;2.40;;;20.00;79.00;;;;;;5284944;22;21762;-89
2022/05/19 11:15:47;;;;;;;;;;;20.00;78.90;;;;;;5026476;28;20053;-90
2022/05/19 11:18:23;;;;;;;6.72;2.72;;;20.10;78.80;;;;;;5027915;28;19979;-92
2022/05/19 11:21:03;;;;;;;11.10;2.90;;;20.10;78.80;;;;;;5017505;28;20046;-93
2022/05/19 11:23:50;;;;;;;5.78;2.47;;;20.00;78.70;;;;;;5013019;28;20056;-94
2022/05/19 11:26:27;;;;;;;6.65;2.95;;;20.10;78.70;;;;;;5021556;28;20396;-93
2022/05/19 11:29:06;;;;;;;4.78;2.60;;;20.10;78.60;;;;;;5022621;28;20128;-93
2022/05/19 11:31:54;;;;;;;11.48;3.17;;;20.10;78.60;;;;;;5012273;28;20490;-94
2022/05/19 11:35:00;;;;;;;7.20;2.42;;;20.10;78.50;;;;;;5024313;28;20088;-94
2022/05/19 11:37:35;;;;;;;7.40;3.00;;;20.10;78.60;;;;;;4984274;28;20061;-90
2022/05/19 11:40:20;;;;;;;6.78;2.95;;;20.10;78.70;;;;;;4972025;28;20452;-91
2022/05/19 11:43:05;;;;;;;6.00;3.08;;;20.20;78.80;;;;;;4973467;28;20051;-90
2022/05/19 11:45:44;;;;;;;8.30;2.78;;;20.20;78.80;;;;;;4981724;28;20105;-91
2022/05/19 11:57:18;;;;;;;4.97;2.50;;;20.20;78.90;;;;;;4986354;28;20046;-91
2022/05/19 11:59:47;;;;;;;6.00;2.45;;;20.30;78.80;;;;;;4987503;28;20520;-91
2022/05/19 12:02:26;;;;;;;5.07;2.15;;;20.30;78.70;;;;;;4984064;28;20074;-91
2022/05/19 12:05:09;;;;;;;6.45;2.50;;;20.20;78.60;;;;;;4976443;28;20078;-91
2022/05/19 12:07:54;;;;;;;5.43;1.88;;;20.30;78.50;;;;;;4976277;28;20441;-91
2022/05/19 12:10:31;;;;;;;6.05;1.90;;;20.20;78.30;;;;;;4976148;28;20058;-92
2022/05/19 12:13:00;;;;;;;3.55;1.65;;;20.20;78.10;;;;;;4979108;28;20062;-95
2022/05/19 12:15:51;;;;;;;4.97;1.70;;;20.20;78.00;;;;;;5015010;28;20531;-91
2022/05/19 12:18:24;;;;;;;4.90;1.88;;;20.10;77.80;;;;;;5025545;28;20049;-91
2022/05/19 12:21:14;;;;;;;8.43;2.33;;;20.10;77.70;;;;;;5024301;28;20061;-90
2022/05/19 12:23:43;;;;;;;4.07;1.70;;;20.00;77.60;;;;;;5026272;28;20046;-90
2022/05/19 12:26:21;;;;;;;7.32;2.05;;;20.00;77.60;;;;;;5015243;28;20050;-91
2022/05/19 12:29:02;;;;;;;5.63;2.05;;;19.90;77.60;;;;;;5016999;28;20492;-90
2022/05/19 12:34:31;;;;;;;6.65;2.17;;;19.90;77.50;;;;;;5016927;28;20049;-90
2022/05/19 12:37:33;;;;;;;7.55;2.92;;;19.90;77.50;;;;;;5025677;28;20053;-91
2022/05/19 12:40:24;;;;;;;8.27;2.85;;;19.90;77.80;;;;;;5015980;28;20046;-89
2022/05/19 12:43:13;;;;;;;8.05;2.38;;;19.80;78.00;;;;;;5024905;28;20507;-88
2022/05/19 12:45:48;;;;;;;7.50;2.83;;;19.80;78.20;;;;;;5023755;28;20051;-89
2022/05/19 12:48:15;;;;;;;7.57;2.58;;;19.80;78.40;;;;;;5016961;28;20140;-89
2022/05/19 12:51:17;;;;;;;8.73;2.88;;;19.90;78.40;;;;;;5015869;28;20045;-89
2022/05/19 12:54:01;;;;;;;6.35;2.40;;;19.90;78.40;;;;;;5021002;28;20475;-89
2022/05/19 12:56:40;;;;;;;6.72;2.47;;;19.90;78.30;;;;;;5022179;28;20050;-88
2022/05/19 12:59:23;;;;;;;7.45;2.70;;;19.90;78.30;;;;;;5015904;28;20054;-87
2022/05/19 13:01:59;;;;;;;8.63;2.60;;;20.00;78.20;;;;;;5013924;28;20133;-89
2022/05/19 13:04:29;;;;;;;6.03;2.10;;;20.00;78.10;;;;;;5025320;28;20053;-88
2022/05/19 13:07:02;;;;;;;7.30;2.63;;;20.10;78.10;;;;;;5024843;28;20060;-88
2022/05/19 13:09:33;;;;;;;6.68;2.30;;;20.20;78.00;;;;;;5031131;28;20569;-89
2022/05/19 13:12:09;;;;;;;7.43;2.30;;;20.20;77.90;;;;;;5018539;28;20111;-88
2022/05/19 13:14:42;;;;;;;8.60;2.90;;;20.30;77.70;;;;;;5039802;28;20117;-88
2022/05/19 13:17:12;;;;;;;;;;;20.40;77.40;;;;;;5063163;28;20405;-89
2022/05/19 13:19:41;;;;;;;6.22;2.30;;;20.40;77.20;;;;;;5056769;28;19924;-87
2022/05/19 13:22:32;;;;;;;6.88;2.67;;;20.40;77.00;;;;;;5065031;28;20455;-89
2022/05/19 13:25:05;;;;;;;5.60;2.03;;;20.50;76.70;;;;;;5063931;28;20102;-88
2022/05/19 13:30:30;;;;;;;8.63;2.63;;;20.60;76.10;;;;;;5061165;28;20106;-87
2022/05/19 13:33:16;;;;;;;6.97;2.65;;;20.70;75.70;;;;;;5058206;28;20485;-88
2022/05/19 13:35:43;;;;;;;7.22;2.22;;;20.70;75.50;;;;;;5052799;28;20052;-87
2022/05/19 13:38:36;;;;;;;8.10;2.40;;;20.80;75.20;;;;;;5054969;28;20040;-88
2022/05/19 13:41:08;;;;;;;5.82;1.88;;;20.90;74.80;;;;;;5058561;28;20049;-87
2022/05/19 13:43:41;;;;;;;7.60;2.40;;;20.90;74.70;;;;;;5057178;28;20568;-88
2022/05/19 13:46:17;;;;;;;7.60;2.50;;;20.90;74.50;;;;;;5065222;28;20121;-87
2022/05/19 13:48:54;;;;;;;6.72;2.25;;;21.00;74.20;;;;;;5063002;28;20071;-89
2022/05/19 13:51:49;;;;;;;6.63;1.88;;;21.10;74.00;;;;;;5064917;28;20041;-87
2022/05/19 13:54:38;;;;;;;5.57;2.05;;;21.10;73.70;;;;;;5054601;28;20098;-87
2022/05/19 13:57:09;;;;;;;5.88;1.90;;;21.20;73.40;;;;;;5055061;28;20548;-87
2022/05/19 13:59:38;;;;;;;7.88;2.10;;;21.20;73.20;;;;;;5054568;28;20060;-87
2022/05/19 14:02:28;;;;;;;8.40;1.90;;;21.30;72.90;;;;;;5053326;28;20098;-87
2022/05/19 14:04:56;;;;;;;6.32;1.83;;;21.40;72.70;;;;;;5040408;28;20094;-88
2022/05/19 14:07:24;;;;;;;6.22;1.60;;;21.40;72.40;;;;;;5054414;28;20498;-87
2022/05/19 14:10:09;;;;;;;7.57;1.85;;;21.40;72.20;;;;;;5053867;28;20102;-86
2022/05/19 14:12:45;;;;;;;6.35;1.60;;;21.40;72.00;;;;;;5061321;28;20102;-87
2022/05/19 14:15:15;;;;;;;5.50;1.83;;;21.50;71.80;;;;;;5055611;28;20510;-87
2022/05/19 14:17:44;;;;;;;4.95;1.88;;;21.50;71.30;;;;;;5054490;28;20434;-88
2022/05/19 14:20:39;;;;;;;8.63;1.75;;;21.60;71.10;;;;;;5054324;28;20099;-87
2022/05/19 14:23:14;;;;;;;3.72;1.40;;;21.60;70.80;;;;;;5060768;28;20106;-89
2022/05/19 14:25:42;;;;;;;3.72;1.48;;;21.70;70.50;;;;;;5065103;28;20506;-88
2022/05/19 14:28:36;;;;;;;4.47;1.40;;;21.80;70.20;;;;;;5064276;28;20048;-88